createdAt,value
2022-08-31T00:00:38.975Z,68.16
2022-08-31T00:03:26.103Z,68.57
2022-08-31T00:06:04.642Z,68.04
2022-08-31T00:08:33.063Z,68.24
2022-08-31T00:11:03.899Z,67.34
2022-08-31T00:13:30.967Z,67.11
2022-08-31T00:15:57.878Z,66.14
2022-08-31T00:18:24.575Z,66.84
2022-08-31T00:20:54.750Z,66.19
2022-08-31T00:23:24.857Z,66.31
2022-08-31T00:25:51.900Z,67.35
2022-08-31T00:28:19.858Z,67.64
2022-08-31T00:30:47.062Z,67.42
2022-08-31T00:33:15.217Z,67.25
2022-08-31T00:35:45.238Z,67.31
2022-08-31T00:38:14.484Z,67.71
2022-08-31T00:40:47.235Z,68.43
2022-08-31T00:43:39.471Z,69.64
2022-08-31T00:46:29.904Z,69.24
2022-08-31T00:49:02.885Z,68.56
2022-08-31T00:51:36.437Z,69.13
2022-08-31T00:54:18.881Z,69.88
2022-08-31T00:56:47.347Z,70.26
2022-08-31T00:59:16.513Z,70.17
2022-08-31T01:01:44.844Z,70.50
2022-08-31T01:04:11.821Z,70.71
2022-08-31T01:06:40.027Z,70.95
2022-08-31T01:09:08.457Z,71.25
2022-08-31T01:11:37.298Z,71.63
2022-08-31T01:14:04.240Z,71.82
2022-08-31T01:16:55.893Z,71.98
2022-08-31T01:19:39.716Z,70.39
2022-08-31T01:22:13.192Z,70.04
2022-08-31T01:24:44.512Z,69.97
2022-08-31T01:27:12.600Z,69.69
2022-08-31T01:29:39.312Z,70.21
2022-08-31T01:32:06.572Z,70.08
2022-08-31T01:34:34.313Z,70.83
2022-08-31T01:37:01.597Z,71.26
2022-08-31T01:39:28.619Z,70.17
2022-08-31T01:41:55.393Z,70.31
2022-08-31T01:44:24.683Z,70.87
2022-08-31T01:46:52.249Z,70.29
2022-08-31T01:49:22.502Z,69.98
2022-08-31T01:51:51.167Z,70.56
2022-08-31T01:54:20.450Z,70.50
2022-08-31T01:56:48.747Z,71.30
2022-08-31T01:59:17.991Z,71.15
2022-08-31T02:01:48.840Z,72.11
2022-08-31T02:04:18.068Z,71.30
2022-08-31T02:06:55.758Z,71.86
2022-08-31T02:09:22.946Z,72.57
2022-08-31T02:11:50.115Z,72.60
2022-08-31T02:14:25.512Z,72.98
2022-08-31T02:16:52.350Z,73.29
2022-08-31T02:19:19.041Z,72.42
2022-08-31T02:21:45.719Z,72.48
2022-08-31T02:24:12.709Z,73.23
2022-08-31T02:26:40.388Z,73.71
2022-08-31T02:29:08.746Z,74.69
2022-08-31T02:31:36.553Z,74.46
2022-08-31T02:34:06.606Z,74.40
2022-08-31T02:36:35.833Z,74.10
2022-08-31T02:39:03.943Z,73.85
2022-08-31T02:41:32.703Z,73.66
2022-08-31T02:43:59.400Z,72.68
2022-08-31T02:46:26.138Z,72.88
2022-08-31T02:48:53.207Z,73.44
2022-08-31T02:51:19.954Z,74.11
2022-08-31T02:53:46.781Z,74.42
2022-08-31T02:56:22.717Z,73.23
2022-08-31T02:58:55.474Z,72.59
2022-08-31T03:01:26.733Z,73.25
2022-08-31T03:03:53.621Z,71.40
2022-08-31T03:06:20.471Z,72.21
2022-08-31T03:08:49.014Z,73.21
2022-08-31T03:11:17.682Z,73.84
2022-08-31T03:13:58.618Z,73.45
2022-08-31T03:16:26.100Z,72.86
2022-08-31T03:18:52.902Z,72.26
2022-08-31T03:21:19.564Z,72.38
2022-08-31T03:23:46.284Z,71.75
2022-08-31T03:26:13.146Z,71.27
2022-08-31T03:28:40.320Z,70.10
2022-08-31T03:31:10.970Z,70.45
2022-08-31T03:33:38.170Z,70.35
2022-08-31T03:36:05.746Z,70.92
2022-08-31T03:38:32.973Z,69.83
2022-08-31T03:41:01.310Z,70.83
2022-08-31T03:43:28.056Z,71.39
2022-08-31T03:45:55.019Z,71.37
2022-08-31T03:48:21.843Z,71.44
2022-08-31T03:50:48.726Z,71.70
2022-08-31T03:53:20.399Z,72.28
2022-08-31T03:55:54.216Z,72.85
2022-08-31T03:58:21.510Z,72.29
2022-08-31T04:00:51.273Z,72.60
2022-08-31T04:03:18.082Z,73.32
2022-08-31T04:05:50.226Z,72.85
2022-08-31T04:08:18.936Z,72.96
2022-08-31T04:10:49.160Z,72.94
2022-08-31T04:13:18.066Z,73.34
2022-08-31T04:15:48.044Z,73.43
2022-08-31T04:18:16.112Z,73.24
2022-08-31T04:20:45.862Z,72.96
2022-08-31T04:23:15.714Z,74.02
2022-08-31T04:25:43.213Z,75.16
2022-08-31T04:28:13.038Z,74.84
2022-08-31T04:30:41.947Z,74.90
2022-08-31T04:33:09.127Z,74.11
2022-08-31T04:35:35.951Z,75.02
2022-08-31T04:38:02.923Z,74.75
2022-08-31T04:40:29.689Z,74.95
2022-08-31T04:42:56.444Z,74.86
2022-08-31T04:45:27.898Z,74.17
2022-08-31T04:47:54.628Z,73.79
2022-08-31T04:50:22.655Z,73.00
2022-08-31T04:53:03.462Z,73.17
2022-08-31T04:55:30.911Z,73.00
2022-08-31T04:57:57.544Z,72.87
2022-08-31T05:00:25.076Z,73.38
2022-08-31T05:02:54.549Z,73.37
2022-08-31T05:05:24.797Z,73.38
2022-08-31T05:07:51.530Z,73.99
2022-08-31T05:10:18.683Z,73.31
2022-08-31T05:12:47.946Z,72.16
2022-08-31T05:15:15.947Z,71.90
2022-08-31T05:17:44.069Z,70.29
2022-08-31T05:20:19.957Z,67.46
2022-08-31T05:22:47.839Z,66.68
2022-08-31T05:25:14.636Z,68.93
2022-08-31T05:27:42.983Z,68.36
2022-08-31T05:30:16.437Z,68.18
2022-08-31T05:32:44.643Z,68.21
2022-08-31T05:35:13.038Z,67.42
2022-08-31T05:37:40.096Z,64.90
2022-08-31T05:40:07.960Z,60.89
2022-08-31T05:42:35.753Z,63.05
2022-08-31T05:45:07.236Z,64.44
2022-08-31T05:47:34.011Z,65.42
2022-08-31T05:50:00.800Z,64.69
2022-08-31T05:52:29.757Z,62.73
2022-08-31T05:54:56.506Z,65.14
2022-08-31T05:57:26.473Z,61.76
2022-08-31T05:59:53.671Z,61.79
2022-08-31T06:02:20.362Z,61.34
2022-08-31T06:04:47.168Z,68.22
2022-08-31T06:07:17.693Z,63.88
2022-08-31T06:09:44.474Z,67.42
2022-08-31T06:12:11.482Z,63.55
2022-08-31T06:14:38.866Z,63.58
2022-08-31T06:17:07.240Z,62.46
2022-08-31T06:19:33.943Z,61.34
2022-08-31T06:22:00.681Z,60.85
2022-08-31T06:24:28.963Z,63.56
2022-08-31T06:27:14.375Z,62.35
2022-08-31T06:29:42.097Z,59.41
2022-08-31T06:32:11.115Z,64.96
2022-08-31T06:34:40.383Z,58.65
2022-08-31T06:37:18.313Z,59.13
2022-08-31T06:39:48.226Z,65.08
2022-08-31T06:42:15.376Z,60.01
2022-08-31T06:44:42.059Z,64.01
2022-08-31T06:47:08.732Z,62.20
2022-08-31T06:49:35.420Z,58.19
2022-08-31T06:52:06.168Z,59.12
2022-08-31T06:54:32.850Z,59.28
2022-08-31T06:56:59.928Z,58.12
2022-08-31T06:59:29.482Z,57.82
2022-08-31T07:02:01.731Z,55.60
2022-08-31T07:04:33.775Z,53.14
2022-08-31T07:07:03.356Z,53.86
2022-08-31T07:09:30.076Z,53.42
2022-08-31T07:11:56.789Z,58.91
2022-08-31T07:14:26.973Z,57.31
2022-08-31T07:16:59.618Z,54.55
2022-08-31T07:19:28.054Z,52.30
2022-08-31T07:21:59.013Z,50.38
2022-08-31T07:24:45.636Z,54.12
2022-08-31T07:27:16.366Z,52.23
2022-08-31T07:29:43.729Z,53.34
2022-08-31T07:32:12.765Z,53.92
2022-08-31T07:34:40.330Z,52.99
2022-08-31T07:37:26.290Z,51.85
2022-08-31T07:40:14.021Z,51.37
2022-08-31T07:42:45.010Z,53.96
2022-08-31T07:45:25.848Z,52.50
2022-08-31T07:48:01.263Z,50.40
2022-08-31T07:50:30.730Z,51.58
2022-08-31T07:52:58.759Z,50.86
2022-08-31T07:55:29.225Z,52.76
2022-08-31T07:57:56.763Z,49.48
2022-08-31T08:00:43.227Z,49.49
2022-08-31T08:03:13.178Z,49.88
2022-08-31T08:05:43.288Z,48.59
2022-08-31T08:08:13.789Z,50.03
2022-08-31T08:10:46.724Z,51.49
2022-08-31T08:13:20.901Z,48.71
2022-08-31T08:15:51.983Z,51.25
2022-08-31T08:18:22.110Z,52.50
2022-08-31T08:20:51.974Z,48.65
2022-08-31T08:23:27.993Z,48.41
2022-08-31T08:25:57.753Z,48.55
2022-08-31T08:28:42.880Z,47.73
2022-08-31T08:31:25.032Z,48.36
2022-08-31T08:33:52.443Z,49.23
2022-08-31T08:36:19.711Z,48.45
2022-08-31T08:38:54.158Z,48.08
2022-08-31T08:41:23.432Z,46.75
2022-08-31T08:44:01.004Z,49.91
2022-08-31T08:46:49.203Z,47.49
2022-08-31T08:49:20.825Z,47.51
2022-08-31T08:51:53.597Z,46.51
2022-08-31T08:54:38.898Z,46.71
2022-08-31T08:57:14.340Z,48.24
2022-08-31T08:59:47.106Z,45.14
2022-08-31T09:02:43.404Z,46.04
2022-08-31T09:05:25.385Z,45.85
2022-08-31T09:08:23.774Z,47.63
2022-08-31T09:11:18.109Z,47.37
2022-08-31T09:13:53.671Z,46.57
2022-08-31T09:16:36.778Z,45.18
2022-08-31T09:19:08.998Z,44.84
2022-08-31T09:21:49.727Z,44.90
2022-08-31T09:24:20.909Z,45.40
2022-08-31T09:27:18.622Z,44.33
2022-08-31T09:30:06.533Z,44.90
2022-08-31T09:32:36.258Z,44.04
2022-08-31T09:35:24.459Z,43.85
2022-08-31T09:38:10.070Z,44.74
2022-08-31T09:40:41.516Z,46.65
2022-08-31T09:43:22.853Z,44.98
2022-08-31T09:46:30.544Z,44.55
2022-08-31T09:49:03.443Z,44.54
2022-08-31T09:51:38.570Z,42.92
2022-08-31T09:54:47.273Z,43.79
2022-08-31T09:57:15.126Z,43.06
2022-08-31T09:59:52.161Z,43.61
2022-08-31T10:02:38.161Z,41.04
2022-08-31T10:05:24.275Z,42.86
2022-08-31T10:08:08.311Z,41.19
2022-08-31T10:10:41.570Z,42.37
2022-08-31T10:13:18.194Z,40.07
2022-08-31T10:16:12.067Z,38.73
2022-08-31T10:19:13.974Z,41.30
2022-08-31T10:22:03.618Z,41.83
2022-08-31T10:24:48.743Z,40.60
2022-08-31T10:27:20.561Z,38.77
2022-08-31T10:29:59.996Z,42.51
2022-08-31T10:32:40.745Z,38.31
2022-08-31T10:35:19.521Z,39.10
2022-08-31T10:38:27.022Z,37.68
2022-08-31T10:41:06.691Z,38.40
2022-08-31T10:43:44.982Z,38.98
2022-08-31T10:46:17.612Z,37.16
2022-08-31T10:48:52.349Z,39.32
2022-08-31T10:51:46.394Z,39.28
2022-08-31T10:54:27.358Z,40.05
2022-08-31T10:57:06.221Z,37.49
2022-08-31T11:00:10.214Z,39.72
2022-08-31T11:02:46.182Z,38.83
2022-08-31T11:05:38.361Z,38.72
2022-08-31T11:08:38.864Z,39.16
2022-08-31T11:11:13.147Z,42.67
2022-08-31T11:14:17.893Z,45.23
2022-08-31T11:17:19.079Z,46.67
2022-08-31T11:20:06.883Z,51.90
2022-08-31T11:22:56.709Z,52.88
2022-08-31T11:25:38.585Z,58.99
2022-08-31T11:28:23.653Z,59.10
2022-08-31T11:30:52.315Z,65.58
2022-08-31T11:33:28.230Z,65.39
2022-08-31T11:36:14.949Z,66.72
2022-08-31T11:39:01.843Z,71.21
2022-08-31T11:41:31.272Z,70.61
2022-08-31T11:44:00.498Z,76.02
2022-08-31T11:46:31.232Z,79.07
2022-08-31T11:49:01.044Z,81.91
2022-08-31T11:51:51.424Z,83.45
2022-08-31T11:54:41.114Z,83.72
2022-08-31T11:57:16.039Z,86.94
2022-08-31T11:59:54.716Z,88.56
2022-08-31T12:02:21.713Z,87.82
2022-08-31T12:05:13.168Z,90.54
2022-08-31T12:08:04.288Z,90.88
2022-08-31T12:10:57.316Z,90.79
2022-08-31T12:13:31.272Z,88.96
2022-08-31T12:16:30.209Z,88.19
2022-08-31T12:19:02.230Z,87.14
2022-08-31T12:22:07.137Z,86.85
2022-08-31T12:24:33.761Z,87.47
2022-08-31T12:27:27.683Z,87.35
2022-08-31T12:30:12.443Z,90.32
2022-08-31T12:32:43.274Z,91.73
2022-08-31T12:35:18.142Z,90.89
2022-08-31T12:37:45.015Z,90.00
2022-08-31T12:40:16.962Z,89.16
2022-08-31T12:42:55.669Z,89.63
2022-08-31T12:46:04.400Z,88.53
2022-08-31T12:49:12.279Z,89.03
2022-08-31T12:51:50.923Z,91.30
2022-08-31T12:54:35.568Z,91.08
2022-08-31T12:57:25.761Z,93.37
2022-08-31T13:00:11.776Z,94.74
2022-08-31T13:02:45.622Z,94.62
2022-08-31T13:05:35.205Z,94.14
2022-08-31T13:08:19.658Z,93.93
2022-08-31T13:10:47.799Z,95.20
2022-08-31T13:13:28.676Z,94.06
2022-08-31T13:16:10.093Z,95.66
2022-08-31T13:18:40.045Z,95.65
2022-08-31T13:21:07.193Z,94.80
2022-08-31T13:23:41.054Z,94.30
2022-08-31T13:26:23.889Z,94.53
2022-08-31T13:29:01.275Z,93.61
2022-08-31T13:31:31.551Z,93.90
2022-08-31T13:34:08.234Z,92.24
2022-08-31T13:37:11.729Z,90.99
2022-08-31T13:39:44.955Z,91.31
2022-08-31T13:42:33.867Z,93.98
2022-08-31T13:45:08.254Z,91.85
2022-08-31T13:47:45.171Z,92.56
2022-08-31T13:50:26.212Z,91.62
2022-08-31T13:53:25.506Z,87.28
2022-08-31T13:55:51.132Z,87.22
2022-08-31T13:58:29.602Z,85.15
2022-08-31T14:01:23.871Z,84.86
2022-08-31T14:03:59.064Z,83.22
2022-08-31T14:06:50.468Z,81.34
2022-08-31T14:09:19.311Z,80.06
2022-08-31T14:12:09.424Z,78.13
2022-08-31T14:14:43.351Z,76.49
2022-08-31T14:17:17.496Z,75.53
2022-08-31T14:19:45.261Z,75.22
2022-08-31T14:22:36.488Z,74.12
2022-08-31T14:25:06.715Z,72.59
2022-08-31T14:27:39.278Z,73.17
2022-08-31T14:30:09.449Z,69.15
2022-08-31T14:32:39.725Z,68.91
2022-08-31T14:35:12.062Z,67.05
2022-08-31T14:37:44.300Z,65.94
2022-08-31T14:40:14.115Z,64.12
2022-08-31T14:42:43.641Z,57.53
2022-08-31T14:45:20.739Z,59.68
2022-08-31T14:47:55.545Z,59.70
2022-08-31T14:50:27.434Z,62.48
2022-08-31T14:52:55.438Z,64.32
2022-08-31T14:55:24.887Z,64.81
2022-08-31T14:58:02.055Z,64.95
2022-08-31T15:00:31.854Z,66.17
2022-08-31T15:03:02.573Z,66.29
2022-08-31T15:05:32.882Z,67.84
2022-08-31T15:07:59.671Z,67.32
2022-08-31T15:10:26.771Z,68.00
2022-08-31T15:12:53.828Z,68.33
2022-08-31T15:15:23.895Z,67.48
2022-08-31T15:17:51.868Z,68.89
2022-08-31T15:20:22.841Z,69.17
2022-08-31T15:22:50.616Z,69.25
2022-08-31T15:25:20.030Z,69.09
2022-08-31T15:27:46.901Z,68.45
2022-08-31T15:30:16.133Z,66.64
2022-08-31T15:32:45.365Z,67.60
2022-08-31T15:35:20.055Z,67.41
2022-08-31T15:37:56.569Z,67.86
2022-08-31T15:40:23.795Z,68.32
2022-08-31T15:42:51.153Z,68.67
2022-08-31T15:45:18.010Z,69.10
2022-08-31T15:48:03.824Z,72.61
2022-08-31T15:50:32.455Z,76.39
2022-08-31T15:53:09.002Z,77.30
2022-08-31T15:55:41.320Z,77.80
2022-08-31T15:58:09.524Z,76.32
2022-08-31T16:00:37.444Z,75.42
2022-08-31T16:03:05.228Z,75.78
2022-08-31T16:05:36.034Z,74.85
2022-08-31T16:08:02.979Z,75.30
2022-08-31T16:10:30.863Z,75.36
2022-08-31T16:12:57.767Z,75.16
2022-08-31T16:15:25.069Z,75.35
2022-08-31T16:17:57.269Z,76.14
2022-08-31T16:20:24.024Z,75.65
2022-08-31T16:22:58.893Z,74.56
2022-08-31T16:25:29.004Z,73.35
2022-08-31T16:27:57.758Z,73.03
2022-08-31T16:30:24.517Z,72.76
2022-08-31T16:32:54.282Z,71.17
2022-08-31T16:35:21.082Z,73.40
2022-08-31T16:37:47.851Z,73.86
2022-08-31T16:40:14.736Z,74.50
2022-08-31T16:42:43.622Z,74.88
2022-08-31T16:45:15.659Z,74.30
2022-08-31T16:47:42.310Z,74.92
2022-08-31T16:50:09.517Z,74.73
2022-08-31T16:52:36.789Z,75.35
2022-08-31T16:55:08.093Z,75.19
2022-08-31T16:57:34.813Z,75.37
2022-08-31T17:00:06.031Z,74.09
2022-08-31T17:02:36.427Z,74.04
2022-08-31T17:05:04.767Z,73.11
2022-08-31T17:07:32.760Z,72.89
2022-08-31T17:10:07.621Z,71.27
2022-08-31T17:12:37.041Z,71.80
2022-08-31T17:15:04.289Z,69.87
2022-08-31T17:17:33.352Z,69.14
2022-08-31T17:20:04.146Z,69.52
2022-08-31T17:22:33.644Z,69.32
2022-08-31T17:25:05.025Z,70.08
2022-08-31T17:27:34.309Z,68.95
2022-08-31T17:30:07.278Z,69.18
2022-08-31T17:32:44.995Z,69.06
2022-08-31T17:35:18.644Z,69.37
2022-08-31T17:37:45.846Z,68.90
2022-08-31T17:40:32.378Z,69.58
2022-08-31T17:43:00.139Z,69.24
2022-08-31T17:45:27.270Z,69.26
2022-08-31T17:47:57.578Z,69.77
2022-08-31T17:50:25.253Z,69.96
2022-08-31T17:52:52.220Z,69.58
2022-08-31T17:55:18.944Z,69.68
2022-08-31T17:57:47.628Z,69.44
2022-08-31T18:00:15.973Z,69.07
2022-08-31T18:02:43.560Z,69.05
2022-08-31T18:05:16.125Z,69.54
2022-08-31T18:07:49.930Z,68.58
2022-08-31T18:10:19.252Z,68.72
2022-08-31T18:12:47.653Z,69.81
2022-08-31T18:15:19.407Z,70.93
2022-08-31T18:17:48.773Z,69.55
2022-08-31T18:20:15.778Z,69.85
2022-08-31T18:22:43.067Z,70.58
2022-08-31T18:25:11.077Z,71.37
2022-08-31T18:27:37.970Z,71.44
2022-08-31T18:30:07.605Z,71.02
2022-08-31T18:32:36.730Z,70.12
2022-08-31T18:35:11.282Z,70.07
2022-08-31T18:37:40.159Z,70.55
2022-08-31T18:40:31.912Z,71.50
2022-08-31T18:43:16.977Z,71.17
2022-08-31T18:45:49.570Z,71.90
2022-08-31T18:48:25.481Z,72.67
2022-08-31T18:50:52.755Z,72.67
2022-08-31T18:53:29.232Z,72.13
2022-08-31T18:56:04.666Z,70.50
2022-08-31T18:58:32.063Z,69.12
2022-08-31T19:00:59.433Z,69.09
2022-08-31T19:03:31.582Z,69.14
2022-08-31T19:05:58.408Z,69.17
2022-08-31T19:08:29.222Z,68.64
2022-08-31T19:11:01.102Z,68.50
2022-08-31T19:13:32.114Z,68.56
2022-08-31T19:16:07.927Z,66.85
2022-08-31T19:18:42.255Z,66.06
2022-08-31T19:21:22.135Z,66.24
2022-08-31T19:23:49.624Z,65.42
2022-08-31T19:26:27.717Z,64.98
2022-08-31T19:28:56.359Z,64.80
2022-08-31T19:31:25.138Z,65.70
2022-08-31T19:33:57.071Z,65.65
2022-08-31T19:36:29.698Z,64.57
2022-08-31T19:38:56.480Z,63.71
2022-08-31T19:41:25.407Z,63.64
2022-08-31T19:44:04.300Z,62.88
2022-08-31T19:46:35.285Z,62.60
2022-08-31T19:49:02.563Z,61.86
2022-08-31T19:51:31.377Z,61.79
2022-08-31T19:53:59.829Z,62.88
2022-08-31T19:56:31.126Z,63.00
2022-08-31T19:58:59.422Z,63.74
2022-08-31T20:01:33.665Z,64.23
2022-08-31T20:04:27.111Z,64.24
2022-08-31T20:06:54.825Z,64.64
2022-08-31T20:09:22.955Z,65.37
2022-08-31T20:11:52.404Z,66.86
2022-08-31T20:14:19.966Z,67.73
2022-08-31T20:16:52.917Z,68.12
2022-08-31T20:19:25.346Z,68.38
2022-08-31T20:22:03.572Z,68.32
2022-08-31T20:24:30.938Z,68.48
2022-08-31T20:27:09.348Z,67.80
2022-08-31T20:29:38.807Z,68.57
2022-08-31T20:32:08.472Z,66.18
2022-08-31T20:34:38.081Z,65.52
2022-08-31T20:37:04.920Z,65.23
2022-08-31T20:39:35.408Z,63.07
2022-08-31T20:42:04.036Z,63.82
2022-08-31T20:44:35.546Z,61.96
2022-08-31T20:47:31.202Z,63.06
2022-08-31T20:50:01.041Z,63.21
2022-08-31T20:52:35.427Z,65.55
2022-08-31T20:55:04.354Z,65.22
2022-08-31T20:57:48.411Z,65.88
2022-08-31T21:00:15.921Z,66.13
2022-08-31T21:02:44.361Z,65.21
2022-08-31T21:05:37.116Z,65.54
2022-08-31T21:08:03.730Z,65.30
2022-08-31T21:10:37.620Z,64.47
2022-08-31T21:13:10.251Z,64.54
2022-08-31T21:15:57.367Z,64.43
2022-08-31T21:18:24.027Z,65.30
2022-08-31T21:20:52.589Z,65.51
2022-08-31T21:23:19.418Z,65.87
2022-08-31T21:25:46.586Z,66.11
2022-08-31T21:28:17.405Z,65.48
2022-08-31T21:30:49.122Z,65.53
2022-08-31T21:33:41.826Z,66.90
2022-08-31T21:36:11.619Z,67.45
2022-08-31T21:38:39.132Z,67.76
2022-08-31T21:41:13.007Z,69.35
2022-08-31T21:43:40.097Z,71.53
2022-08-31T21:46:10.772Z,71.27
2022-08-31T21:48:40.543Z,72.04
2022-08-31T21:51:12.355Z,71.93
2022-08-31T21:53:42.424Z,71.76
2022-08-31T21:56:10.462Z,74.53
2022-08-31T21:58:37.220Z,74.85
2022-08-31T22:01:10.582Z,74.67
2022-08-31T22:03:39.329Z,72.73
2022-08-31T22:06:09.276Z,72.87
2022-08-31T22:08:38.280Z,72.84
2022-08-31T22:11:13.327Z,73.18
2022-08-31T22:13:43.965Z,72.63
2022-08-31T22:16:18.970Z,72.63
2022-08-31T22:19:06.410Z,72.33
2022-08-31T22:21:47.286Z,72.33
2022-08-31T22:24:27.844Z,72.34
2022-08-31T22:26:57.125Z,73.27
2022-08-31T22:29:27.111Z,73.07
2022-08-31T22:31:57.863Z,71.49
2022-08-31T22:34:25.283Z,72.39
2022-08-31T22:36:53.164Z,73.76
2022-08-31T22:39:25.235Z,74.98
2022-08-31T22:41:53.187Z,75.02
2022-08-31T22:44:23.257Z,76.88
2022-08-31T22:46:50.174Z,75.61
2022-08-31T22:49:17.518Z,76.16
2022-08-31T22:51:48.671Z,77.10
2022-08-31T22:54:18.000Z,75.69
2022-08-31T22:56:45.745Z,76.10
2022-08-31T22:59:15.753Z,77.14
2022-08-31T23:01:52.557Z,76.95
2022-08-31T23:04:23.831Z,77.00
2022-08-31T23:06:51.952Z,76.61
2022-08-31T23:09:21.617Z,76.84
2022-08-31T23:11:51.755Z,100.00
2022-08-31T23:14:21.147Z,100.00
2022-08-31T23:16:57.237Z,100.00
2022-08-31T23:19:31.007Z,100.00
2022-08-31T23:21:58.935Z,100.00
2022-08-31T23:24:37.617Z,100.00
2022-08-31T23:27:07.942Z,100.00
2022-08-31T23:29:45.733Z,100.00
2022-08-31T23:32:17.505Z,100.00
2022-08-31T23:34:46.713Z,100.00
2022-08-31T23:37:14.259Z,100.00
2022-08-31T23:39:46.590Z,100.00
2022-08-31T23:42:18.092Z,100.00
2022-08-31T23:44:46.711Z,100.00
2022-08-31T23:47:23.538Z,100.00
2022-08-31T23:49:51.395Z,100.00
2022-08-31T23:52:21.601Z,100.00
2022-08-31T23:54:52.253Z,100.00
2022-08-31T23:57:31.411Z,100.00
